Time;durP1;ratioP1;P1;durP2;ratioP2;P2;SDS_P1;SDS_P2;PMS_P1;PMS_P2;Temp;Humidity;BMP_temperature;BMP_pressure;BME280_temperature;BME280_humidity;BME280_pressure;Samples;Min_cycle;Max_cycle;Signal;HPM_P1;HPM_P2
2021/12/16 00:04:11;;;;;;;;;;;2.50;99.90;;;;;;5068097;28;20031;-79
2021/12/16 00:09:06;;;;;;;24.73;13.35;;;2.50;99.90;;;;;;5072714;28;20523;-79
2021/12/16 00:35:38;;;;;;;27.25;15.27;;;2.20;99.90;;;;;;5078248;28;20064;-79
2021/12/16 00:38:03;;;;;;;30.98;16.63;;;2.30;99.90;;;;;;5072539;28;20082;-79
2021/12/16 00:40:29;;;;;;;;;;;2.20;99.90;;;;;;5070857;28;20029;-78
2021/12/16 00:43:00;;;;;;;27.13;14.98;;;2.20;99.90;;;;;;5049342;28;19916;-79
2021/12/16 00:48:38;;;;;;;34.17;19.02;;;2.00;99.90;;;;;;5037002;28;20021;-82
2021/12/16 00:56:17;;;;;;;29.05;16.00;;;2.00;99.90;;;;;;5080523;28;20052;-79
2021/12/16 00:58:51;;;;;;;;;;;2.00;99.90;;;;;;5063727;28;20013;-80
2021/12/16 01:01:36;;;;;;;29.70;16.92;;;2.00;99.90;;;;;;5079460;28;19968;-79
2021/12/16 01:47:20;;;;;;;6.57;3.75;;;1.20;99.90;;;;;;5078275;28;20016;-79
2021/12/16 01:54:53;;;;;;;5.65;2.65;;;1.10;99.90;;;;;;5079355;28;19954;-84
2021/12/16 01:57:28;;;;;;;6.20;2.67;;;1.20;99.90;;;;;;5062063;28;20070;-81
2021/12/16 02:00:01;;;;;;;5.93;2.75;;;1.10;99.90;;;;;;5079359;28;20020;-83
2021/12/16 02:08:14;;;;;;;14.15;5.53;;;0.90;99.90;;;;;;5079317;28;20039;-82
2021/12/16 02:10:47;;;;;;;21.65;7.75;;;0.80;99.90;;;;;;5077995;28;20021;-83
2021/12/16 02:13:42;;;;;;;19.80;6.22;;;0.80;99.90;;;;;;5077148;28;20088;-83
2021/12/16 02:35:13;;;;;;;;;;;1.50;99.90;;;;;;5077671;28;20060;-84
2021/12/16 02:37:46;;;;;;;9.95;4.82;;;1.50;99.90;;;;;;5059895;28;19915;-84
2021/12/16 02:40:13;;;;;;;13.43;5.40;;;1.40;99.90;;;;;;5060514;28;20009;-84
2021/12/16 02:42:53;;;;;;;7.85;4.50;;;1.60;99.90;;;;;;5077456;28;20041;-84
2021/12/16 02:48:49;;;;;;;9.75;5.18;;;1.80;99.90;;;;;;5077479;28;20016;-83
2021/12/16 02:50:51;;;;;;;8.68;4.45;;;1.80;99.90;;;;;;5063321;28;20020;-84
2021/12/16 02:53:17;;;;;;;7.85;3.80;;;1.80;99.90;;;;;;5077428;28;20013;-84
2021/12/16 02:55:43;;;;;;;5.20;2.83;;;1.90;99.90;;;;;;5059475;28;20088;-84
2021/12/16 02:58:09;;;;;;;;;;;2.00;99.90;;;;;;5077454;28;20009;-83
2021/12/16 03:00:41;;;;;;;8.50;4.53;;;2.10;99.90;;;;;;5059719;28;19923;-82
2021/12/16 03:03:07;;;;;;;7.72;4.07;;;2.20;99.90;;;;;;5059722;28;20033;-85
2021/12/16 03:05:33;;;;;;;;;;;2.30;99.90;;;;;;5060780;28;20063;-84
2021/12/16 03:07:59;;;;;;;9.23;5.35;;;2.30;99.90;;;;;;5059945;28;20004;-84
2021/12/16 03:13:11;;;;;;;11.88;5.95;;;2.40;99.90;;;;;;5077878;28;20077;-84
2021/12/16 03:18:43;;;;;;;12.50;5.97;;;2.30;99.90;;;;;;5078165;28;20019;-84
2021/12/16 03:21:18;;;;;;;8.30;4.20;;;2.30;99.90;;;;;;5077363;28;20009;-84
2021/12/16 04:11:39;;;;;;;15.65;8.40;;;1.30;99.90;;;;;;522387;26;20271;-77
2021/12/16 04:14:07;;;;;;;16.13;9.40;;;1.40;99.90;;;;;;4999592;28;20051;-83
2021/12/16 04:16:45;;;;;;;18.05;9.40;;;1.40;99.90;;;;;;5001692;28;20066;-83
2021/12/16 04:19:15;;;;;;;22.33;12.27;;;1.40;99.90;;;;;;4985135;28;20027;-84
2021/12/16 04:21:46;;;;;;;20.58;9.25;;;1.30;99.90;;;;;;5001856;28;20021;-83
2021/12/16 04:24:12;;;;;;;16.15;7.75;;;1.40;99.90;;;;;;4984340;28;20014;-83
2021/12/16 04:26:41;;;;;;;13.20;7.28;;;1.40;99.90;;;;;;4983237;28;20082;-87
2021/12/16 04:29:07;;;;;;;21.92;11.10;;;1.30;99.90;;;;;;4999951;28;20042;-85
2021/12/16 05:54:00;;;;;;;20.27;9.85;;;0.80;99.90;;;;;;4996900;28;20048;-83
2021/12/16 05:56:27;;;;;;;32.03;13.05;;;0.80;99.90;;;;;;4999400;28;20058;-80
2021/12/16 05:58:52;;;;;;;33.25;14.50;;;0.90;99.90;;;;;;5000421;28;20083;-78
2021/12/16 06:01:23;;;;;;;;;;;1.00;99.90;;;;;;4984143;28;20019;-78
2021/12/16 06:03:49;;;;;;;63.65;29.10;;;1.00;99.90;;;;;;5000341;28;19895;-79
2021/12/16 06:06:16;;;;;;;55.33;26.33;;;1.10;99.90;;;;;;4983732;28;20011;-81
2021/12/16 06:08:48;;;;;;;68.70;34.40;;;1.10;99.90;;;;;;5000388;28;20078;-77
2021/12/16 06:11:24;;;;;;;47.55;23.25;;;1.30;99.90;;;;;;4983686;28;20019;-79
2021/12/16 06:14:11;;;;;;;67.20;32.55;;;1.40;99.90;;;;;;4983804;28;20015;-81
2021/12/16 06:27:34;;;;;;;32.00;16.98;;;1.60;99.90;;;;;;5000276;28;20013;-78
2021/12/16 06:30:00;;;;;;;44.63;23.75;;;1.70;99.90;;;;;;5000153;28;20019;-77
2021/12/16 06:53:12;;;;;;;120.93;59.80;;;1.90;99.90;;;;;;5840777;23;20034;-78
2021/12/16 06:55:52;;;;;;;114.30;55.72;;;2.00;99.90;;;;;;4999945;28;20027;-81
2021/12/16 07:00:49;;;;;;;101.55;47.35;;;1.90;99.90;;;;;;5002766;28;20019;-82
2021/12/16 07:03:19;;;;;;;82.53;39.78;;;2.00;99.90;;;;;;4987085;28;20015;-80
2021/12/16 07:05:48;;;;;;;70.18;33.40;;;2.00;99.90;;;;;;5003594;28;20019;-80
2021/12/16 07:08:18;;;;;;;56.97;29.25;;;2.10;99.90;;;;;;5003711;28;20022;-78
2021/12/16 07:10:46;;;;;;;45.80;23.90;;;2.10;99.90;;;;;;4987045;28;20019;-78
2021/12/16 07:13:28;;;;;;;39.75;20.95;;;2.30;99.90;;;;;;4986794;28;20015;-78
2021/12/16 07:15:56;;;;;;;45.17;22.05;;;2.20;99.90;;;;;;4986785;28;20023;-80
2021/12/16 07:18:22;;;;;;;34.50;19.15;;;2.40;99.90;;;;;;4986861;28;20004;-77
2021/12/16 07:20:48;;;;;;;;;;;2.40;99.90;;;;;;4987146;28;20086;-78
2021/12/16 07:23:14;;;;;;;25.58;14.63;;;2.40;99.90;;;;;;5003431;28;19918;-79
2021/12/16 07:25:40;;;;;;;;;;;2.50;99.90;;;;;;5003649;28;20038;-77
2021/12/16 07:28:07;;;;;;;26.38;15.80;;;2.60;99.90;;;;;;5003293;28;19894;-77
2021/12/16 10:35:47;;;;;;;29.33;19.05;;;6.70;99.90;;;;;;4984229;23;20063;-78
2021/12/16 10:38:17;;;;;;;31.15;19.08;;;6.60;99.90;;;;;;4964390;28;20046;-81
2021/12/16 10:40:58;;;;;;;29.00;19.95;;;6.50;99.90;;;;;;4965262;28;20012;-75
2021/12/16 10:43:26;;;;;;;31.85;21.02;;;6.50;99.90;;;;;;4965472;28;20043;-75
2021/12/16 10:46:17;;;;;;;30.50;20.27;;;6.30;99.90;;;;;;4949082;28;20043;-75
2021/12/16 10:48:55;;;;;;;29.65;19.10;;;6.20;99.90;;;;;;4940327;29;20043;-75
2021/12/16 10:51:29;;;;;;;36.40;22.65;;;6.20;99.90;;;;;;4948625;29;20030;-77
2021/12/16 10:54:04;;;;;;;31.25;19.63;;;6.20;99.90;;;;;;4965237;28;20043;-79
2021/12/16 10:56:44;;;;;;;37.30;22.25;;;6.10;99.90;;;;;;4965146;28;20020;-76
2021/12/16 10:59:16;;;;;;;37.53;22.20;;;6.10;99.90;;;;;;4965134;28;20028;-77
2021/12/16 11:01:57;;;;;;;34.05;21.40;;;6.10;99.90;;;;;;4965092;28;20016;-76
2021/12/16 11:04:27;;;;;;;34.53;21.17;;;6.10;99.90;;;;;;4965088;28;20012;-76
2021/12/16 11:07:04;;;;;;;36.10;20.15;;;6.10;99.90;;;;;;4948674;28;20039;-76
2021/12/16 11:09:47;;;;;;;36.38;21.13;;;6.10;99.90;;;;;;4964967;28;20019;-76
2021/12/16 11:12:15;;;;;;;35.92;20.58;;;6.20;99.90;;;;;;4948595;28;20016;-76
2021/12/16 11:14:46;;;;;;;37.67;25.02;;;6.20;99.90;;;;;;4964757;28;20015;-75
2021/12/16 11:17:14;;;;;;;40.35;24.70;;;6.20;99.90;;;;;;4948234;29;20044;-78
2021/12/16 11:19:47;;;;;;;38.25;22.95;;;6.30;99.90;;;;;;4964734;28;20015;-75
2021/12/16 11:22:18;;;;;;;40.92;26.42;;;6.30;99.90;;;;;;4963452;28;20027;-76
2021/12/16 11:24:44;;;;;;;36.08;22.95;;;6.30;99.90;;;;;;4948338;29;20016;-75
2021/12/16 11:27:33;;;;;;;35.13;22.23;;;6.40;99.90;;;;;;4964353;28;20012;-78
2021/12/16 11:45:36;;;;;;;29.80;18.38;;;6.70;99.90;;;;;;5664745;23;20051;-79
2021/12/16 11:48:04;;;;;;;31.50;19.73;;;6.70;99.90;;;;;;4974547;28;20023;-77
2021/12/16 11:50:41;;;;;;;27.00;16.63;;;6.70;99.90;;;;;;4966930;28;20075;-76
2021/12/16 11:53:11;;;;;;;27.60;16.75;;;6.70;99.90;;;;;;4966997;28;20015;-81
2021/12/16 11:55:38;;;;;;;24.33;16.25;;;6.70;99.90;;;;;;4983373;28;20031;-77
2021/12/16 11:58:08;;;;;;;32.78;18.77;;;6.70;99.90;;;;;;4983399;28;20018;-77
2021/12/16 12:00:38;;;;;;;31.92;20.83;;;6.80;99.90;;;;;;4983332;28;20088;-77
2021/12/16 12:03:12;;;;;;;31.40;19.10;;;6.70;99.90;;;;;;4983345;28;20039;-79
2021/12/16 12:05:44;;;;;;;35.63;21.10;;;6.60;99.90;;;;;;4966719;28;20042;-77
2021/12/16 12:08:15;;;;;;;33.78;21.10;;;6.50;99.90;;;;;;4966508;28;20022;-77
2021/12/16 12:11:21;;;;;;;34.25;20.67;;;6.40;99.90;;;;;;4983023;28;20015;-78
2021/12/16 12:13:59;;;;;;;32.83;19.73;;;6.30;99.90;;;;;;4906110;29;20057;-77
2021/12/16 12:16:34;;;;;;;32.90;19.40;;;6.20;99.90;;;;;;4890286;29;20029;-77
2021/12/16 12:19:23;;;;;;;31.85;19.92;;;6.20;99.90;;;;;;4939078;28;20035;-79
2021/12/16 12:21:56;;;;;;;30.17;19.17;;;6.20;99.90;;;;;;4982922;28;20011;-76
2021/12/16 12:24:32;;;;;;;28.15;17.90;;;6.20;99.90;;;;;;4966336;28;20035;-77
2021/12/16 12:27:09;;;;;;;;;;;6.10;99.90;;;;;;4966766;28;20011;-77
2021/12/16 12:29:51;;;;;;;34.57;21.13;;;6.20;99.90;;;;;;4978253;28;19894;-76
2021/12/16 13:28:47;;;;;;;44.55;27.40;;;5.70;99.90;;;;;;4962461;28;20047;-75
2021/12/16 20:35:57;;;;;;;107.88;52.03;;;2.40;99.90;;;;;;5433859;23;20039;-82
2021/12/16 20:38:28;;;;;;;122.68;50.55;;;2.40;99.90;;;;;;4982578;28;20075;-80
2021/12/16 20:41:00;;;;;;;129.50;56.60;;;2.30;99.90;;;;;;4965363;28;20046;-80
2021/12/16 20:43:31;;;;;;;75.65;35.95;;;2.30;99.90;;;;;;4982588;28;20034;-75
2021/12/16 20:46:13;;;;;;;66.47;30.75;;;2.30;99.90;;;;;;4965994;28;20083;-77
2021/12/16 20:48:52;;;;;;;31.00;15.15;;;2.30;99.90;;;;;;4966011;29;20020;-78
2021/12/16 20:51:26;;;;;;;42.90;22.52;;;2.10;99.90;;;;;;4966030;28;20023;-75
2021/12/16 20:53:52;;;;;;;40.95;19.95;;;2.20;99.90;;;;;;4965747;28;20015;-83
2021/12/16 20:56:18;;;;;;;;;;;2.10;99.90;;;;;;4964785;29;20091;-85
2021/12/16 20:58:48;;;;;;;113.53;43.42;;;2.10;99.90;;;;;;4981702;28;19906;-82
2021/12/16 21:01:22;;;;;;;91.35;39.55;;;2.10;99.90;;;;;;4965332;28;20051;-81
2021/12/16 21:03:49;;;;;;;43.28;19.42;;;2.40;99.90;;;;;;4965558;28;20008;-76
2021/12/16 21:06:19;;;;;;;23.35;10.40;;;2.50;99.90;;;;;;4965377;28;20019;-82
2021/12/16 21:08:48;;;;;;;34.13;15.95;;;2.70;99.90;;;;;;4982063;28;20075;-82
2021/12/16 21:11:16;;;;;;;32.33;14.93;;;3.00;99.90;;;;;;4964725;29;20023;-84
2021/12/16 21:13:44;;;;;;;25.17;12.45;;;3.20;99.90;;;;;;4981335;28;20015;-78
2021/12/16 21:16:11;;;;;;;33.33;16.08;;;3.30;99.90;;;;;;4965077;28;20027;-78
2021/12/16 21:18:39;;;;;;;27.80;12.88;;;3.40;99.90;;;;;;4965287;28;20007;-77
2021/12/16 21:21:06;;;;;;;62.00;26.65;;;3.40;99.90;;;;;;4981877;28;20031;-77
2021/12/16 21:23:32;;;;;;;70.45;32.38;;;3.30;99.90;;;;;;4965390;28;20015;-77
2021/12/16 21:25:58;;;;;;;288.92;156.63;;;3.10;99.90;;;;;;4965254;28;20014;-77
2021/12/16 21:28:24;;;;;;;;;;;3.00;99.90;;;;;;4965601;28;20015;-77
2021/12/16 21:30:52;;;;;;;16.40;8.40;;;2.80;99.90;;;;;;4965291;28;19901;-77
2021/12/16 21:44:42;;;;;;;23.40;10.38;;;2.70;99.90;;;;;;5871652;23;20035;-83
2021/12/16 21:47:08;;;;;;;21.45;10.60;;;2.60;99.90;;;;;;4945603;29;20020;-83
2021/12/16 21:49:34;;;;;;;;;;;2.50;99.90;;;;;;4945989;28;20024;-81
2021/12/16 21:52:02;;;;;;;19.98;9.23;;;2.40;99.90;;;;;;4961952;28;19901;-85
2021/12/16 21:54:29;;;;;;;18.80;10.60;;;2.10;99.90;;;;;;4945427;28;20020;-80
2021/12/16 21:57:02;;;;;;;19.55;10.48;;;2.10;99.90;;;;;;4961258;28;20043;-81
2021/12/16 21:59:30;;;;;;;17.60;9.60;;;1.90;99.90;;;;;;4944813;28;20032;-82
2021/12/16 22:01:56;;;;;;;25.23;11.68;;;1.90;99.90;;;;;;4944848;29;20047;-81
2021/12/16 22:04:25;;;;;;;;;;;1.80;99.90;;;;;;4962082;28;20040;-81
2021/12/16 22:06:51;;;;;;;29.42;15.52;;;1.70;99.90;;;;;;4945583;29;19895;-75
2021/12/16 22:09:17;;;;;;;32.45;14.77;;;1.60;99.90;;;;;;4961665;28;20039;-75
2021/12/16 22:11:43;;;;;;;;;;;1.40;99.90;;;;;;4962239;28;20023;-77
2021/12/16 22:14:09;;;;;;;101.22;42.88;;;1.40;99.90;;;;;;4945542;29;19902;-79
2021/12/16 22:16:38;;;;;;;;;;;1.40;99.90;;;;;;4962094;28;20023;-76
2021/12/16 22:19:09;;;;;;;43.75;23.33;;;1.40;99.90;;;;;;4945493;28;19909;-77
2021/12/16 22:21:39;;;;;;;49.28;25.92;;;1.50;99.90;;;;;;4961785;28;20011;-78
2021/12/16 22:24:05;;;;;;;47.30;25.55;;;1.40;99.90;;;;;;4961518;28;20011;-78
2021/12/16 22:26:32;;;;;;;47.17;22.58;;;1.40;99.90;;;;;;4961337;28;20011;-81
2021/12/16 22:28:58;;;;;;;48.78;25.23;;;1.40;99.90;;;;;;4944635;29;20048;-83
2021/12/16 22:31:25;;;;;;;;;;;1.20;99.90;;;;;;4938758;29;20091;-82
2021/12/16 22:33:55;;;;;;;21.95;11.02;;;1.40;99.90;;;;;;4925968;29;19923;-78
2021/12/16 22:36:22;;;;;;;14.88;8.10;;;1.40;99.90;;;;;;4942507;29;20091;-76
2021/12/16 22:38:49;;;;;;;25.33;13.52;;;1.40;99.90;;;;;;4942599;29;20012;-77
2021/12/16 22:41:17;;;;;;;41.75;21.63;;;1.40;99.90;;;;;;4942449;29;20025;-80
2021/12/16 22:43:44;;;;;;;44.40;23.25;;;1.30;99.90;;;;;;4925969;29;20013;-77
2021/12/16 22:46:10;;;;;;;30.25;14.68;;;1.30;99.90;;;;;;4940869;28;20035;-77
2021/12/16 22:48:39;;;;;;;24.08;12.35;;;1.20;99.90;;;;;;4961510;28;20015;-78
2021/12/16 22:51:11;;;;;;;18.77;10.80;;;1.10;99.90;;;;;;4944911;29;20068;-77
2021/12/16 22:53:39;;;;;;;26.52;15.48;;;1.10;99.90;;;;;;4945118;29;20015;-80
2021/12/16 22:56:05;;;;;;;25.38;13.90;;;1.20;99.90;;;;;;4961285;28;20041;-80
2021/12/16 22:58:34;;;;;;;27.40;14.32;;;1.30;99.90;;;;;;4945131;29;20016;-79
2021/12/16 23:01:08;;;;;;;44.70;21.48;;;1.20;99.90;;;;;;4944992;29;20027;-79
2021/12/16 23:03:35;;;;;;;33.83;16.42;;;1.10;99.90;;;;;;4942596;28;20023;-75
2021/12/16 23:06:01;;;;;;;30.88;15.55;;;1.10;99.90;;;;;;4944916;28;20062;-76
2021/12/16 23:08:26;;;;;;;;;;;1.00;99.90;;;;;;4945143;29;20008;-78
2021/12/16 23:10:54;;;;;;;63.63;29.10;;;1.00;99.90;;;;;;4944753;28;19895;-84
2021/12/16 23:13:24;;;;;;;85.28;46.80;;;0.90;99.90;;;;;;4944897;28;20016;-80
2021/12/16 23:16:16;;;;;;;88.85;45.97;;;0.90;99.90;;;;;;4961211;28;20032;-76
2021/12/16 23:23:52;;;;;;;59.17;28.90;;;0.80;99.90;;;;;;4961234;28;20008;-78
2021/12/16 23:26:21;;;;;;;46.15;24.48;;;0.80;99.90;;;;;;4960641;29;20031;-81
2021/12/16 23:28:48;;;;;;;42.83;22.83;;;0.80;99.90;;;;;;4960652;28;20027;-81
2021/12/16 23:59:46;;;;;;;51.50;26.67;;;0.40;99.90;;;;;;4921343;29;20064;-82
